To NAV CANADA Home Page Login to a new session Search on AWWS site Feedback and Comments Disclaimer Vers la page française équivalente Tips FAQ What's new on the site To the Forecasts and Observations / NOTAM section To "File a Flight Plan" website Publications and other links Update of the User's profile FIC Telephone Numbers My Weather Data Folder Route Weather Data Regional Weather Data Local Weather Data To the Forecasts and Observations / NOTAM section
Request Generated 05/05/2016 at 01:00:13 UTC . Weather information available at that time is displayed.

METAR/TAF

OTTAWA/GATINEAU/QC    

METAR CYND 050000Z 07010KT 15SM BKN030 BKN080 12/07 A2981 RMK SC5AC2
SLP097=
METAR CYND 042300Z 07009KT 15SM FEW030 BKN080 12/07 A2980 RMK SC2AC5
SLP094=
METAR CYND 042200Z 08013KT 15SM FEW030 BKN080 BKN240 13/07 A2978 RMK
SC1AC5CI1 SLP089=

TAF AMD CYND 050012Z 0500/0501 07010KT P6SM BKN030 OVC080 TEMPO
0500/0501 6SM -SHRA BR BKN020 OVC080
RMK NXT FCST WILL BE ISSUED AT 051245Z=
Your time UTC time
Weather data provided by Environment Canada and NAV CANADA